Time;durP1;ratioP1;P1;durP2;ratioP2;P2;SDS_P1;SDS_P2;PMS_P1;PMS_P2;Temp;Humidity;BMP_temperature;BMP_pressure;BME280_temperature;BME280_humidity;BME280_pressure;Samples;Min_cycle;Max_cycle;Signal;HPM_P1;HPM_P2
2022/03/15 00:01:58;;;;;;;;;5.00;5.00;;;;;11.74;100.00;101972.94;4989728;28;45631;-82
2022/03/15 00:04:24;;;;;;;;;6.00;5.00;;;;;11.73;100.00;101965.72;4990921;28;45493;-81
2022/03/15 00:06:49;;;;;;;;;4.00;4.00;;;;;11.48;100.00;101917.09;4984322;28;45640;-79
2022/03/15 00:09:15;;;;;;;;;7.00;6.00;;;;;11.48;100.00;101916.22;4986190;28;45309;-81
2022/03/15 00:11:40;;;;;;;;;9.33;6.00;;;;;11.06;100.00;101846.72;4989396;28;46065;-80
2022/03/15 00:14:06;;;;;;;;;5.67;5.00;;;;;11.73;100.00;101954.84;4980415;28;45091;-81
2022/03/15 00:16:31;;;;;;;;;5.00;4.00;;;;;11.73;100.00;101956.69;4981794;28;45119;-82
2022/03/15 00:18:57;;;;;;;;;8.00;6.00;;;;;11.33;100.00;101887.94;4976527;28;45541;-81
2022/03/15 00:21:25;;;;;;;;;4.33;4.33;;;;;11.72;100.00;101950.34;4972648;28;45767;-79
2022/03/15 00:23:50;;;;;;;;;7.67;6.00;;;;;11.55;100.00;101923.09;4985054;28;45280;-80
2022/03/15 00:26:15;;;;;;;;;10.00;6.00;;;;;11.57;100.00;101926.66;4978311;28;45506;-80
2022/03/15 00:28:41;;;;;;;;;6.33;5.00;;;;;11.37;100.00;101887.72;4983762;28;45298;-79
2022/03/15 00:31:06;;;;;;;;;9.67;8.00;;;;;11.42;100.00;101896.53;4983356;28;45373;-79
2022/03/15 00:33:32;;;;;;;;;6.67;5.67;;;;;11.21;100.00;101862.25;4987450;28;45138;-79
2022/03/15 00:36:01;;;;;;;;;5.67;4.00;;;;;11.34;100.00;101896.03;4980659;28;45544;-82
2022/03/15 00:38:28;;;;;;;;;8.33;5.00;;;;;11.26;100.00;101883.78;4988775;28;45130;-79
2022/03/15 00:40:53;;;;;;;;;7.00;5.33;;;;;11.65;100.00;101946.16;4987097;28;45795;-81
2022/03/15 00:43:19;;;;;;;;;6.67;6.67;;;;;11.35;100.00;101899.63;4983597;28;45126;-79
2022/03/15 00:45:44;;;;;;;;;6.33;5.33;;;;;9.85;100.00;101635.31;4988455;28;45410;-78
2022/03/15 00:48:09;;;;;;;;;7.67;6.67;;;;;9.94;100.00;101656.59;4985736;28;45257;-81
2022/03/15 00:50:39;;;;;;;;;6.00;6.00;;;;;10.64;100.00;101788.06;4986611;28;45091;-78
2022/03/15 00:53:05;;;;;;;;;7.33;6.00;;;;;11.62;100.00;101932.72;4987107;28;45518;-80
2022/03/15 00:55:31;;;;;;;;;6.33;5.00;;;;;11.48;100.00;101911.66;4984079;28;45266;-80
2022/03/15 00:57:56;;;;;;;;;12.00;8.00;;;;;11.60;100.00;101931.91;4985847;28;45155;-79
2022/03/15 01:00:21;;;;;;;;;5.67;5.67;;;;;11.35;100.00;101891.47;4987170;28;45134;-81
2022/03/15 01:02:48;;;;;;;;;8.00;8.00;;;;;11.51;100.00;101911.50;4988414;28;45381;-81
2022/03/15 01:05:13;;;;;;;;;6.67;5.67;;;;;11.39;100.00;101891.22;4984145;28;45406;-79
2022/03/15 01:07:39;;;;;;;;;5.00;1.00;;;;;11.52;100.00;101916.00;4981056;28;45350;-82
2022/03/15 01:10:06;;;;;;;;;7.67;5.67;;;;;11.52;100.00;101909.66;4986461;28;46076;-80
2022/03/15 01:12:32;;;;;;;;;9.00;7.00;;;;;11.59;100.00;101921.97;4986401;28;45158;-79
2022/03/15 01:14:57;;;;;;;;;6.33;5.33;;;;;11.49;100.00;101901.63;4986226;28;45525;-82
2022/03/15 01:17:24;;;;;;;;;7.00;6.00;;;;;11.18;100.00;101857.84;4986278;28;45040;-83
2022/03/15 01:19:49;;;;;;;;;6.00;6.00;;;;;11.59;100.00;101921.97;4985054;28;45778;-83
2022/03/15 01:22:15;;;;;;;;;7.00;7.00;;;;;11.60;100.00;101907.41;4985468;28;45173;-82
2022/03/15 01:24:40;;;;;;;;;5.33;5.33;;;;;11.61;100.00;101906.47;4986993;28;45595;-79
2022/03/15 01:27:06;;;;;;;;;5.00;4.67;;;;;11.47;100.00;101879.94;4987332;28;45134;-80
2022/03/15 01:29:31;;;;;;;;;6.00;5.00;;;;;11.61;100.00;101901.88;4984393;28;45715;-83
2022/03/15 01:31:59;;;;;;;;;6.00;6.00;;;;;11.46;100.00;101880.91;4987651;28;45307;-84
2022/03/15 01:34:24;;;;;;;;;7.33;6.00;;;;;11.61;100.00;101893.72;4985116;28;45052;-84
2022/03/15 01:36:50;;;;;;;;;4.33;4.00;;;;;11.57;100.00;101892.13;4996133;28;44992;-84
2022/03/15 01:39:16;;;;;;;;;4.67;3.00;;;;;11.63;100.00;101890.91;4994303;28;46084;-82
2022/03/15 01:41:44;;;;;;;;;5.67;5.33;;;;;11.63;100.00;101888.19;4985677;28;45429;-81
2022/03/15 01:44:15;;;;;;;;;10.00;7.33;;;;;11.52;100.00;101864.25;4986609;28;45380;-82
2022/03/15 01:46:41;;;;;;;;;7.00;7.00;;;;;11.65;100.00;101878.06;4987135;28;44957;-83
2022/03/15 01:49:07;;;;;;;;;7.00;4.33;;;;;11.35;100.00;101821.59;4981520;28;45322;-81
2022/03/15 01:51:32;;;;;;;;;7.33;4.00;;;;;11.44;100.00;101834.69;4987242;28;45161;-82
2022/03/15 01:53:58;;;;;;;;;6.33;6.00;;;;;11.66;100.00;101864.38;4987162;28;45044;-82
2022/03/15 01:56:24;;;;;;;;;5.00;5.00;;;;;11.66;100.00;101860.78;4986702;28;45126;-82
2022/03/15 01:58:49;;;;;;;;;5.67;3.00;;;;;11.66;100.00;101845.31;4979397;28;45456;-81
2022/03/15 02:01:14;;;;;;;;;5.67;5.00;;;;;11.67;100.00;101851.66;4979203;28;45128;-82
2022/03/15 02:03:40;;;;;;;;;9.33;6.00;;;;;11.67;100.00;101852.53;4978872;28;45137;-81
2022/03/15 02:06:05;;;;;;;;;9.33;6.00;;;;;11.56;100.00;101825.00;4989401;28;45113;-80
2022/03/15 02:08:31;;;;;;;;;7.00;7.00;;;;;11.62;100.00;101834.66;4985038;28;45561;-80
2022/03/15 02:10:57;;;;;;;;;8.00;6.00;;;;;11.40;100.00;101800.44;4986075;28;45497;-79
2022/03/15 02:13:23;;;;;;;;;6.00;6.00;;;;;11.69;100.00;101841.53;4970199;28;45123;-80
2022/03/15 02:15:49;;;;;;;;;6.00;4.67;;;;;11.69;100.00;101842.41;4982403;28;45387;-82
2022/03/15 02:18:14;;;;;;;;;8.00;5.00;;;;;11.39;100.00;101781.44;4980182;28;45921;-80
2022/03/15 02:20:40;;;;;;;;;7.67;4.33;;;;;11.73;100.00;101834.09;4982721;28;45391;-83
2022/03/15 02:23:05;;;;;;;;;5.33;5.33;;;;;11.37;100.00;101769.75;4987384;28;45322;-83
2022/03/15 02:25:30;;;;;;;;;6.33;6.00;;;;;11.75;100.00;101829.41;4981669;28;45043;-83
2022/03/15 02:27:56;;;;;;;;;6.67;6.67;;;;;11.75;100.00;101827.56;4986428;28;45256;-84
2022/03/15 02:30:21;;;;;;;;;7.33;7.00;;;;;11.30;100.00;101752.84;4989220;28;45149;-83
2022/03/15 02:32:48;;;;;;;;;6.00;6.00;;;;;11.14;100.00;101716.53;4984563;28;45756;-83
2022/03/15 02:35:15;;;;;;;;;6.00;5.00;;;;;11.76;100.00;101817.56;4988076;28;45387;-81
2022/03/15 02:37:40;;;;;;;;;7.00;6.00;;;;;11.51;100.00;101769.00;4988852;28;45122;-81
2022/03/15 02:40:06;;;;;;;;;5.67;4.33;;;;;11.77;100.00;101812.03;4989027;28;45102;-83
2022/03/15 02:42:32;;;;;;;;;7.00;7.00;;;;;11.51;100.00;101766.28;4988879;28;45401;-79
2022/03/15 02:44:57;;;;;;;;;5.00;5.00;;;;;11.78;100.00;101818.38;4983577;28;45651;-81
2022/03/15 02:47:22;;;;;;;;;8.67;6.00;;;;;11.78;100.00;101813.78;4987720;28;45122;-79
2022/03/15 02:49:48;;;;;;;;;6.00;5.00;;;;;11.63;100.00;101788.28;4987901;28;45103;-79
2022/03/15 02:52:15;;;;;;;;;8.00;6.33;;;;;11.79;100.00;101812.81;4987560;28;45204;-80
2022/03/15 02:54:41;;;;;;;;;5.00;5.00;;;;;11.79;100.00;101814.66;4986113;28;45566;-79
2022/03/15 02:57:10;;;;;;;;;6.00;6.00;;;;;11.01;100.00;101672.81;4989384;28;45954;-81
2022/03/15 02:59:36;;;;;;;;;6.00;6.00;;;;;11.78;100.00;101805.63;4988947;28;45225;-79
2022/03/15 03:02:02;;;;;;;;;6.00;6.00;;;;;11.80;100.00;101800.06;4989124;28;44966;-81
2022/03/15 03:04:27;;;;;;;;;8.33;6.00;;;;;11.72;100.00;101783.28;4990084;28;45049;-83
2022/03/15 03:06:53;;;;;;;;;5.67;5.67;;;;;11.80;100.00;101787.34;4990067;28;45642;-81
2022/03/15 03:09:18;;;;;;;;;8.00;6.00;;;;;11.63;100.00;101750.13;4990020;28;45284;-80
2022/03/15 03:11:44;;;;;;;;;8.67;6.33;;;;;11.71;100.00;101779.69;4990224;28;45123;-78
2022/03/15 03:14:12;;;;;;;;;5.33;5.00;;;;;11.66;100.00;101765.44;4971962;28;45460;-79
2022/03/15 03:16:39;;;;;;;;;7.33;6.00;;;;;11.67;100.00;101764.47;4989676;28;45540;-79
2022/03/15 03:19:08;;;;;;;;;7.00;6.00;;;;;11.73;100.00;101780.47;4990128;28;45166;-80
2022/03/15 03:21:34;;;;;;;;;6.33;6.00;;;;;11.61;100.00;101759.38;4988399;28;45277;-80
2022/03/15 03:24:03;;;;;;;;;11.00;6.00;;;;;11.78;100.00;101786.56;4988627;28;45136;-78
2022/03/15 03:26:28;;;;;;;;;8.00;6.67;;;;;11.78;100.00;101785.69;4988917;28;46176;-79
2022/03/15 03:28:53;;;;;;;;;7.33;7.00;;;;;11.77;100.00;101790.25;4988805;28;45194;-80
2022/03/15 03:31:19;;;;;;;;;12.67;7.67;;;;;11.76;100.00;101777.59;4988487;28;45886;-78
2022/03/15 03:33:45;;;;;;;;;7.67;6.33;;;;;11.35;100.00;101717.22;4989576;28;45255;-77
2022/03/15 03:36:10;;;;;;;;;5.00;5.00;;;;;11.66;100.00;101765.44;4986944;28;45420;-80
2022/03/15 03:38:37;;;;;;;;;7.00;6.00;;;;;11.62;100.00;101767.44;4987913;28;45268;-80
2022/03/15 03:41:04;;;;;;;;;4.67;3.33;;;;;11.73;100.00;101788.66;4986481;28;45509;-79
2022/03/15 03:43:31;;;;;;;;;6.00;6.00;;;;;11.64;100.00;101764.63;4989032;28;44991;-78
2022/03/15 03:45:57;;;;;;;;;8.00;5.33;;;;;11.07;100.00;101668.88;4987958;28;45644;-81
2022/03/15 03:48:26;;;;;;;;;9.67;7.33;;;;;11.70;100.00;101788.81;4987107;28;45027;-79
2022/03/15 03:50:52;;;;;;;;;6.00;6.00;;;;;11.67;100.00;101783.53;4983772;28;45744;-79
2022/03/15 03:53:18;;;;;;;;;7.33;7.00;;;;;11.51;100.00;101753.56;4986486;28;45341;-81
2022/03/15 03:55:44;;;;;;;;;8.00;7.00;;;;;11.31;100.00;101726.53;4987740;28;45665;-77
2022/03/15 03:58:10;;;;;;;;;6.00;6.00;;;;;10.51;100.00;101574.88;4984910;28;45123;-78
2022/03/15 04:00:36;;;;;;;;;5.33;5.00;;;;;11.58;100.00;101764.97;4984496;28;45560;-79
2022/03/15 04:03:02;;;;;;;;;8.33;7.33;;;;;11.13;100.00;101693.00;4982112;28;45619;-78
2022/03/15 04:05:30;;;;;;;;;5.33;5.33;;;;;11.47;100.00;101748.34;4987483;28;45399;-79
2022/03/15 04:07:59;;;;;;;;;8.00;6.00;;;;;11.50;100.00;101754.50;4988525;28;45320;-79
2022/03/15 04:10:25;;;;;;;;;10.00;10.00;;;;;11.57;100.00;101768.66;4989944;28;45044;-77
2022/03/15 04:12:51;;;;;;;;;10.00;8.00;;;;;11.55;100.00;101768.72;4982244;28;45270;-77
2022/03/15 04:15:16;;;;;;;;;6.33;6.33;;;;;11.47;100.00;101746.50;4981538;28;45521;-79
2022/03/15 04:17:42;;;;;;;;;9.67;7.67;;;;;11.54;100.00;101763.38;4987353;28;45114;-79
2022/03/15 04:20:07;;;;;;;;;9.33;6.33;;;;;11.20;100.00;101701.72;4986619;28;45405;-80
2022/03/15 04:22:33;;;;;;;;;7.67;7.67;;;;;11.38;100.00;101747.00;4984548;28;45347;-79
2022/03/15 04:24:58;;;;;;;;;9.67;8.33;;;;;11.52;100.00;101757.16;4978636;28;45504;-81
2022/03/15 04:27:24;;;;;;;;;10.67;7.33;;;;;10.88;100.00;101667.13;4982997;28;45418;-80
2022/03/15 04:29:49;;;;;;;;;9.67;9.67;;;;;11.51;100.00;101758.13;4987453;28;45303;-78
2022/03/15 04:32:14;;;;;;;;;9.67;7.33;;;;;11.48;100.00;101752.84;4985934;28;45330;-78
2022/03/15 04:34:40;;;;;;;;;10.00;7.67;;;;;11.48;100.00;101759.16;4985546;28;45909;-78
2022/03/15 04:37:06;;;;;;;;;7.00;7.00;;;;;11.34;100.00;101742.69;4987515;28;45133;-78
2022/03/15 04:39:31;;;;;;;;;7.00;6.00;;;;;11.47;100.00;101756.53;4987360;28;45247;-78
2022/03/15 04:41:57;;;;;;;;;7.67;7.67;;;;;11.37;100.00;101739.81;4987787;28;45405;-77
2022/03/15 04:44:23;;;;;;;;;8.33;8.33;;;;;10.93;100.00;101680.47;4986276;28;45178;-79
2022/03/15 04:46:48;;;;;;;;;7.33;6.00;;;;;11.43;100.00;101751.22;4987580;28;45153;-77
2022/03/15 04:49:14;;;;;;;;;10.00;9.00;;;;;11.22;100.00;101711.56;4986723;28;45250;-78
2022/03/15 04:51:39;;;;;;;;;8.33;8.00;;;;;11.41;100.00;101749.56;4985645;28;45460;-78
2022/03/15 04:54:05;;;;;;;;;9.67;8.33;;;;;11.20;100.00;101716.19;4983347;28;45377;-77
2022/03/15 04:56:30;;;;;;;;;6.00;6.00;;;;;10.90;100.00;101669.78;4986981;28;45876;-77
2022/03/15 04:58:56;;;;;;;;;8.33;7.33;;;;;11.26;100.00;101725.91;4986551;28;45321;-78
2022/03/15 05:01:21;;;;;;;;;7.00;7.00;;;;;11.37;100.00;101751.56;4982493;28;45271;-80
2022/03/15 05:03:47;;;;;;;;;7.33;6.00;;;;;10.76;100.00;101639.72;4984641;28;45460;-79
2022/03/15 05:06:12;;;;;;;;;13.00;12.00;;;;;11.30;100.00;101732.91;4988895;28;44963;-81
2022/03/15 05:08:38;;;;;;;;;7.67;7.67;;;;;10.53;100.00;101617.31;4991643;28;45274;-80
2022/03/15 05:11:06;;;;;;;;;9.00;7.67;;;;;10.43;100.00;101597.03;4971005;28;45162;-81
2022/03/15 05:13:52;;;;;;;;;6.67;6.67;;;;;11.36;100.00;101744.38;4984561;28;45432;-80
2022/03/15 05:16:19;;;;;;;;;11.33;8.00;;;;;10.43;100.00;101593.44;4987284;28;45314;-81
2022/03/15 05:18:51;;;;;;;;;8.67;7.67;;;;;10.42;100.00;101581.69;4976466;28;45639;-80
2022/03/15 05:21:17;;;;;;;;;7.33;7.33;;;;;10.26;100.00;101561.72;4984182;28;45468;-81
2022/03/15 05:23:44;;;;;;;;;5.67;5.00;;;;;10.56;100.00;101635.34;4977950;28;45177;-81
2022/03/15 05:26:10;;;;;;;;;7.33;7.00;;;;;11.32;100.00;101740.06;4986728;28;45162;-81
2022/03/15 05:28:36;;;;;;;;;8.33;7.33;;;;;10.71;100.00;101634.53;4987042;28;45267;-81
2022/03/15 05:31:01;;;;;;;;;8.00;8.00;;;;;10.55;100.00;101607.28;4986841;28;45201;-80
2022/03/15 05:33:30;;;;;;;;;8.67;7.67;;;;;11.33;100.00;101741.81;4984986;28;45545;-80
2022/03/15 05:35:55;;;;;;;;;8.33;7.33;;;;;11.33;100.00;101751.81;4969996;28;45976;-81
2022/03/15 05:38:21;;;;;;;;;8.67;6.67;;;;;11.33;100.00;101749.97;4986782;28;45129;-80
2022/03/15 05:40:47;;;;;;;;;8.00;8.00;;;;;11.18;100.00;101732.63;4986864;28;45207;-80
2022/03/15 05:43:13;;;;;;;;;8.00;8.00;;;;;11.33;100.00;101763.59;4980149;28;45433;-80
2022/03/15 05:45:39;;;;;;;;;8.00;8.00;;;;;11.33;100.00;101754.53;4985267;28;45305;-79
2022/03/15 05:48:05;;;;;;;;;11.33;8.67;;;;;11.25;100.00;101737.72;4986252;28;45424;-81
2022/03/15 05:50:30;;;;;;;;;8.00;7.00;;;;;11.32;100.00;101752.78;4987067;28;45124;-80
2022/03/15 05:52:56;;;;;;;;;10.33;6.33;;;;;10.91;100.00;101691.47;4986465;28;45293;-81
2022/03/15 05:55:22;;;;;;;;;8.00;7.00;;;;;11.26;100.00;101753.13;4986737;28;45004;-80
2022/03/15 05:57:47;;;;;;;;;8.00;8.00;;;;;10.88;100.00;101686.16;4985677;28;45521;-79
2022/03/15 06:00:14;;;;;;;;;12.33;10.67;;;;;10.84;100.00;101679.13;4964324;28;45581;-79
2022/03/15 06:02:40;;;;;;;;;9.33;8.33;;;;;10.90;100.00;101695.16;4986839;28;45195;-81
2022/03/15 06:05:07;;;;;;;;;8.67;7.33;;;;;11.31;100.00;101764.66;4977493;28;45438;-80
2022/03/15 06:07:32;;;;;;;;;9.33;8.00;;;;;11.30;100.00;101761.03;4971481;28;45383;-80
2022/03/15 06:09:58;;;;;;;;;11.67;9.00;;;;;11.31;100.00;101764.66;4979261;28;45411;-81
2022/03/15 06:12:24;;;;;;;;;8.67;8.67;;;;;11.09;100.00;101735.84;4960973;28;46855;-79
2022/03/15 06:14:50;;;;;;;;;7.00;7.00;;;;;11.30;100.00;101771.03;4969262;28;45710;-76
2022/03/15 06:17:16;;;;;;;;;8.00;8.00;;;;;10.51;100.00;101645.56;4984219;28;45397;-79
2022/03/15 06:19:41;;;;;;;;;8.33;8.00;;;;;10.90;100.00;101697.88;4979205;28;45525;-77
2022/03/15 06:22:06;;;;;;;;;12.00;7.67;;;;;9.97;100.00;101561.34;4972313;28;45525;-77
2022/03/15 06:24:32;;;;;;;;;10.67;10.67;;;;;11.31;100.00;101770.09;4975435;28;45382;-78
2022/03/15 06:26:58;;;;;;;;;12.67;10.67;;;;;10.23;100.00;101595.31;4978750;28;45559;-80
2022/03/15 06:29:25;;;;;;;;;11.33;8.67;;;;;10.68;100.00;101667.31;4970277;28;45560;-78
2022/03/15 06:31:50;;;;;;;;;12.00;11.67;;;;;11.29;100.00;101770.16;4952686;28;47142;-79
2022/03/15 06:34:15;;;;;;;;;11.00;11.00;;;;;11.19;100.00;101749.84;4986189;28;45944;-78
2022/03/15 06:36:42;;;;;;;;;14.67;13.00;;;;;11.24;100.00;101763.19;4980386;28;45326;-78
2022/03/15 06:39:08;;;;;;;;;13.33;12.33;;;;;11.21;100.00;101755.22;4976749;28;45447;-77
2022/03/15 06:41:38;;;;;;;;;12.33;12.00;;;;;11.20;100.00;101754.31;4972008;28;45681;-79
2022/03/15 06:44:05;;;;;;;;;17.00;13.00;;;;;10.33;100.00;101614.78;4974499;28;45663;-79
2022/03/15 06:46:30;;;;;;;;;14.33;12.67;;;;;11.05;100.00;101725.19;4972572;28;45455;-80
2022/03/15 06:48:56;;;;;;;;;14.67;13.00;;;;;9.31;100.00;101434.41;4966659;28;45547;-80
2022/03/15 06:51:22;;;;;;;;;13.00;12.33;;;;;11.26;100.00;101781.22;4974943;28;45534;-78
2022/03/15 06:53:47;;;;;;;;;15.67;13.67;;;;;11.27;100.00;101773.94;4966242;28;45689;-77
2022/03/15 06:56:13;;;;;;;;;12.33;12.33;;;;;11.00;100.00;101721.84;4980819;28;45556;-77
2022/03/15 06:58:38;;;;;;;;;18.25;15.50;;;;;11.05;100.00;101738.81;4976505;28;45552;-76
2022/03/15 07:01:04;;;;;;;;;16.00;15.25;;;;;11.03;100.00;101741.59;4977377;28;47128;-77
2022/03/15 07:03:29;;;;;;;;;20.67;18.33;;;;;11.26;100.00;101767.63;4980890;28;45605;-76
2022/03/15 07:05:54;;;;;;;;;16.67;16.67;;;;;11.27;100.00;101760.31;4987095;28;45317;-75
2022/03/15 07:08:20;;;;;;;;;16.50;14.25;;;;;11.26;100.00;101762.19;4990841;28;44950;-76
2022/03/15 07:10:45;;;;;;;;;21.00;14.50;;;;;11.16;100.00;101745.44;4984122;28;45619;-77
2022/03/15 07:13:11;;;;;;;;;19.00;17.75;;;;;11.02;100.00;101725.38;4970363;28;45344;-77
2022/03/15 07:15:36;;;;;;;;;22.00;15.25;;;;;10.94;100.00;101716.72;4987334;28;45039;-76
2022/03/15 07:18:01;;;;;;;;;15.67;15.67;;;;;11.24;100.00;101779.53;4974024;28;45445;-75
2022/03/15 07:20:27;;;;;;;;;20.00;17.25;;;;;11.23;100.00;101772.34;4970300;28;45616;-75
2022/03/15 07:22:53;;;;;;;;;19.00;16.00;;;;;11.23;100.00;101775.06;4971024;28;45603;-75
2022/03/15 07:25:20;;;;;;;;;15.00;15.00;;;;;11.23;100.00;101778.66;4961601;28;45493;-75
2022/03/15 07:27:47;;;;;;;;;20.50;19.00;;;;;11.08;100.00;101752.25;4971320;28;45643;-75
2022/03/15 07:30:13;;;;;;;;;23.00;18.00;;;;;10.88;100.00;101720.66;4972994;28;46632;-78
2022/03/15 07:32:38;;;;;;;;;24.50;21.50;;;;;10.64;100.00;101673.84;4970333;28;45627;-78
2022/03/15 07:35:04;;;;;;;;;17.25;15.00;;;;;11.13;100.00;101761.06;4969989;28;45779;-78
2022/03/15 07:37:30;;;;;;;;;19.50;18.25;;;;;11.22;100.00;101787.78;4970270;28;45519;-78
2022/03/15 07:39:55;;;;;;;;;48.00;38.50;;;;;11.23;100.00;101796.84;4970304;28;46036;-78
2022/03/15 07:42:21;;;;;;;;;47.50;35.75;;;;;11.23;100.00;101785.94;4969925;28;45326;-78
2022/03/15 07:44:46;;;;;;;;;39.00;31.75;;;;;11.23;100.00;101785.94;4971335;28;45552;-77
2022/03/15 07:47:14;;;;;;;;;28.25;22.75;;;;;10.89;100.00;101715.13;4973457;28;45467;-77
2022/03/15 07:49:40;;;;;;;;;22.75;21.50;;;;;11.19;100.00;101758.00;4971332;28;47055;-76
2022/03/15 07:52:06;;;;;;;;;22.50;19.75;;;;;11.00;100.00;101724.56;4972695;28;45356;-77
2022/03/15 07:54:31;;;;;;;;;21.50;19.25;;;;;11.26;100.00;101766.75;4971130;28;45450;-76
2022/03/15 07:56:57;;;;;;;;;21.75;20.00;;;;;11.26;100.00;101764.91;4970725;28;45517;-77
2022/03/15 07:59:22;;;;;;;;;22.67;20.00;;;;;11.13;100.00;101739.28;4974540;28;45425;-78
2022/03/15 08:01:48;;;;;;;;;21.50;19.75;;;;;11.27;100.00;101758.47;4966110;28;45560;-78
2022/03/15 08:04:14;;;;;;;;;24.50;23.50;;;;;11.17;100.00;101749.06;4975373;28;45536;-77
2022/03/15 08:06:39;;;;;;;;;22.33;19.33;;;;;11.28;100.00;101771.13;4970303;28;45846;-78
2022/03/15 08:09:05;;;;;;;;;23.25;23.00;;;;;11.28;100.00;101756.63;4979563;28;45321;-75
2022/03/15 08:11:30;;;;;;;;;23.50;22.75;;;;;10.89;100.00;101693.38;4987524;28;45053;-77
2022/03/15 08:13:56;;;;;;;;;28.00;24.50;;;;;11.20;100.00;101750.72;4974181;28;45558;-74
2022/03/15 08:16:22;;;;;;;;;25.50;21.75;;;;;11.27;100.00;101768.50;4973033;28;45378;-75
2022/03/15 08:18:49;;;;;;;;;24.75;20.25;;;;;11.26;100.00;101766.75;4983692;28;45548;-76
2022/03/15 08:21:15;;;;;;;;;26.50;24.50;;;;;10.94;100.00;101714.00;4957912;28;45465;-76
2022/03/15 08:23:40;;;;;;;;;29.75;23.75;;;;;11.22;100.00;101752.41;4969406;28;45567;-75
2022/03/15 08:26:06;;;;;;;;;34.00;28.00;;;;;11.23;100.00;101756.00;4975173;28;45483;-77
2022/03/15 08:28:32;;;;;;;;;25.25;23.25;;;;;11.18;100.00;101754.41;4979723;28;45520;-77
2022/03/15 08:30:59;;;;;;;;;24.75;24.75;;;;;11.20;100.00;101750.72;4982761;28;45225;-77
2022/03/15 08:33:25;;;;;;;;;26.50;25.75;;;;;11.20;100.00;101758.88;4956238;28;45470;-76
2022/03/15 08:35:51;;;;;;;;;27.25;25.50;;;;;10.99;100.00;101728.25;4971219;28;45662;-77
2022/03/15 08:38:16;;;;;;;;;23.50;22.50;;;;;11.18;100.00;101765.28;4970366;28;46183;-76
2022/03/15 08:40:42;;;;;;;;;28.50;26.00;;;;;11.16;100.00;101769.06;4972661;28;45494;-78
2022/03/15 08:43:08;;;;;;;;;26.50;22.00;;;;;11.11;100.00;101757.56;4970962;28;45597;-77
2022/03/15 08:45:35;;;;;;;;;25.00;23.75;;;;;11.01;100.00;101737.22;4970363;28;45492;-76
2022/03/15 08:48:01;;;;;;;;;28.25;25.50;;;;;11.16;100.00;101785.41;4970581;28;45377;-77
2022/03/15 08:50:26;;;;;;;;;27.00;23.25;;;;;11.10;100.00;101767.56;4970434;28;45499;-76
2022/03/15 08:52:52;;;;;;;;;27.75;27.50;;;;;10.91;100.00;101745.88;4970187;28;45519;-77
2022/03/15 08:55:18;;;;;;;;;21.00;19.50;;;;;10.96;100.00;101739.31;4969691;28;45482;-76
2022/03/15 08:57:43;;;;;;;;;23.00;23.00;;;;;11.15;100.00;101781.81;4969691;28;46123;-76
2022/03/15 09:00:10;;;;;;;;;32.25;25.75;;;;;10.87;100.00;101737.94;4952130;28;45423;-76
2022/03/15 09:02:36;;;;;;;;;25.50;24.50;;;;;10.87;100.00;101737.94;4969782;28;45486;-76
2022/03/15 09:05:02;;;;;;;;;25.50;25.25;;;;;11.03;100.00;101765.22;4963716;28;45841;-76
2022/03/15 09:07:28;;;;;;;;;23.25;22.25;;;;;11.08;100.00;101769.47;4969125;28;45797;-76
2022/03/15 09:09:54;;;;;;;;;25.50;23.25;;;;;11.16;100.00;101786.28;4969195;28;45596;-74
2022/03/15 09:12:20;;;;;;;;;27.25;24.00;;;;;11.10;100.00;101788.41;4968463;28;45797;-77
2022/03/15 09:14:46;;;;;;;;;28.00;25.00;;;;;11.17;100.00;101800.75;4970159;28;45604;-78
2022/03/15 09:17:12;;;;;;;;;28.00;25.00;;;;;11.12;100.00;101781.06;4969861;28;46939;-77
2022/03/15 09:19:40;;;;;;;;;24.75;22.50;;;;;11.13;100.00;101780.97;4970049;28;45575;-78
2022/03/15 09:22:06;;;;;;;;;23.75;20.25;;;;;11.04;100.00;101766.97;4970007;28;45492;-77
2022/03/15 09:24:33;;;;;;;;;30.00;26.25;;;;;11.05;100.00;101771.47;4968101;28;45733;-76
2022/03/15 09:26:59;;;;;;;;;24.00;21.00;;;;;11.21;100.00;101794.22;4949781;28;46175;-78
2022/03/15 09:29:24;;;;;;;;;34.75;28.75;;;;;11.22;100.00;101795.97;4974588;28;45845;-77
2022/03/15 09:31:49;;;;;;;;;24.50;22.75;;;;;10.75;100.00;101711.41;4969556;28;45652;-77
2022/03/15 09:34:17;;;;;;;;;32.25;27.50;;;;;11.02;100.00;101747.16;4969746;28;45406;-77
2022/03/15 09:36:43;;;;;;;;;28.25;25.75;;;;;11.25;100.00;101792.19;4969692;28;45949;-77
2022/03/15 09:39:08;;;;;;;;;28.00;23.50;;;;;10.93;100.00;101723.13;4968746;28;45431;-78
2022/03/15 09:41:38;;;;;;;;;25.75;24.75;;;;;11.06;100.00;101746.91;4969499;28;45453;-77
2022/03/15 09:44:07;;;;;;;;;25.00;23.00;;;;;11.25;100.00;101770.41;4969628;28;45510;-78
2022/03/15 09:46:38;;;;;;;;;28.25;25.00;;;;;11.06;100.00;101741.47;4969063;28;47694;-77
2022/03/15 09:49:06;;;;;;;;;34.00;31.25;;;;;11.28;100.00;101767.53;4951291;28;45468;-78
2022/03/15 09:51:34;;;;;;;;;25.00;24.50;;;;;11.28;100.00;101770.25;4969479;28;45449;-78
2022/03/15 09:54:01;;;;;;;;;24.50;24.50;;;;;11.22;100.00;101756.97;4969400;28;45351;-79
2022/03/15 09:56:26;;;;;;;;;28.25;27.00;;;;;11.28;100.00;101760.22;4969461;28;45441;-78
2022/03/15 09:58:52;;;;;;;;;25.25;23.75;;;;;10.71;100.00;101656.28;4969342;28;45399;-78
2022/03/15 10:01:18;;;;;;;;;29.50;26.00;;;;;11.29;100.00;101748.38;4969518;28;45618;-77
2022/03/15 10:03:47;;;;;;;;;25.50;24.00;;;;;11.15;100.00;101732.81;4969303;28;45779;-79
2022/03/15 10:06:15;;;;;;;;;27.25;24.50;;;;;11.21;100.00;101738.88;4968978;28;45571;-78
2022/03/15 10:08:41;;;;;;;;;26.75;25.50;;;;;11.06;100.00;101713.38;4969002;28;45517;-77
2022/03/15 10:11:07;;;;;;;;;28.50;25.00;;;;;11.24;100.00;101747.75;4969096;28;45371;-78
2022/03/15 10:13:33;;;;;;;;;28.25;27.75;;;;;10.76;100.00;101667.78;4969053;28;45636;-78
2022/03/15 10:16:00;;;;;;;;;30.75;29.50;;;;;11.22;100.00;101737.91;4969091;28;46017;-77
2022/03/15 10:18:26;;;;;;;;;32.25;26.25;;;;;11.22;100.00;101732.47;4969052;28;45492;-76
2022/03/15 10:20:52;;;;;;;;;24.50;22.75;;;;;11.33;100.00;101749.97;4971610;28;45476;-76
2022/03/15 10:23:19;;;;;;;;;29.75;28.00;;;;;11.34;100.00;101753.56;4970368;28;45532;-76
2022/03/15 10:25:51;;;;;;;;;29.00;25.75;;;;;11.24;100.00;101739.56;4968922;28;45466;-76
2022/03/15 10:28:17;;;;;;;;;31.75;29.50;;;;;11.32;100.00;101750.06;4969115;28;45461;-77
2022/03/15 10:30:45;;;;;;;;;32.00;28.00;;;;;11.20;100.00;101729.81;4969287;28;45683;-77
2022/03/15 10:33:11;;;;;;;;;34.50;29.75;;;;;11.11;100.00;101714.00;4968803;28;45500;-77
2022/03/15 10:35:40;;;;;;;;;31.25;30.25;;;;;11.13;100.00;101712.06;4968689;28;45513;-79
2022/03/15 10:38:07;;;;;;;;;29.00;27.25;;;;;11.36;100.00;101757.13;4950959;28;45482;-78
2022/03/15 10:40:42;;;;;;;;;33.00;28.75;;;;;11.35;100.00;101747.16;4969079;28;45465;-78
2022/03/15 10:43:13;;;;;;;;;29.25;26.25;;;;;11.20;100.00;101713.47;4969017;28;45461;-80
2022/03/15 10:45:46;;;;;;;;;32.00;29.50;;;;;11.35;100.00;101742.63;4970650;28;46543;-78
2022/03/15 10:48:21;;;;;;;;;28.50;26.25;;;;;11.10;100.00;101693.16;4971736;28;45426;-79
2022/03/15 10:50:55;;;;;;;;;37.25;33.00;;;;;11.38;100.00;101744.28;4969415;28;45540;-79
2022/03/15 10:53:23;;;;;;;;;31.25;30.00;;;;;11.33;100.00;101730.03;4971965;28;45457;-78
2022/03/15 10:55:48;;;;;;;;;32.00;32.00;;;;;11.41;100.00;101735.97;4971789;28;46425;-77
2022/03/15 10:58:21;;;;;;;;;32.50;30.00;;;;;11.03;100.00;101670.00;4972113;28;45515;-78
2022/03/15 11:00:50;;;;;;;;;32.75;29.50;;;;;11.41;100.00;101742.28;4972127;28;45411;-77
2022/03/15 11:03:20;;;;;;;;;34.00;30.75;;;;;11.16;100.00;101696.47;4971982;28;45832;-78
2022/03/15 11:05:48;;;;;;;;;34.75;29.50;;;;;11.41;100.00;101744.13;4971544;28;46266;-75